Time;durP1;ratioP1;P1;durP2;ratioP2;P2;SDS_P1;SDS_P2;PMS_P1;PMS_P2;Temp;Humidity;BMP_temperature;BMP_pressure;BME280_temperature;BME280_humidity;BME280_pressure;Samples;Min_cycle;Max_cycle;Signal;HPM_P1;HPM_P2
2021/04/18 00:01:28;;;;;;;2.37;2.00;;;23.90;28.80;;;;;;5029854;28;20407;-59
2021/04/18 00:03:54;;;;;;;2.30;1.88;;;23.90;28.90;;;;;;5030876;28;20860;-58
2021/04/18 00:06:20;;;;;;;2.47;2.00;;;23.80;29.00;;;;;;5031410;28;20790;-59
2021/04/18 00:08:49;;;;;;;2.58;1.95;;;23.80;28.90;;;;;;5029982;28;20426;-58
2021/04/18 00:11:16;;;;;;;2.40;1.80;;;23.80;29.00;;;;;;5031371;28;20383;-58
2021/04/18 00:13:42;;;;;;;2.50;2.08;;;23.70;28.90;;;;;;5030919;28;20395;-58
2021/04/18 00:16:08;;;;;;;2.50;2.10;;;23.70;29.00;;;;;;5031354;28;20437;-58
2021/04/18 00:18:33;;;;;;;2.58;2.08;;;23.70;29.00;;;;;;5030033;28;20772;-58
2021/04/18 00:20:59;;;;;;;2.07;1.77;;;23.60;29.00;;;;;;5031228;28;20474;-59
2021/04/18 00:23:24;;;;;;;2.20;1.83;;;23.60;29.10;;;;;;5031235;28;20403;-58
2021/04/18 00:25:50;;;;;;;2.60;1.87;;;23.60;29.10;;;;;;5030723;28;20379;-58
2021/04/18 00:28:16;;;;;;;2.20;1.95;;;23.60;29.10;;;;;;5030001;28;20399;-58
2021/04/18 00:30:42;;;;;;;2.30;2.00;;;23.50;29.20;;;;;;5031152;28;20415;-58
2021/04/18 00:33:07;;;;;;;2.23;1.80;;;23.50;29.20;;;;;;5031116;28;20921;-58
2021/04/18 00:35:33;;;;;;;2.30;1.83;;;23.50;29.20;;;;;;5031186;28;20795;-59
2021/04/18 00:37:59;;;;;;;2.17;1.70;;;23.40;29.20;;;;;;5030578;28;20874;-58
2021/04/18 00:40:25;;;;;;;2.17;1.83;;;23.40;29.20;;;;;;5030893;28;20405;-59
2021/04/18 00:42:52;;;;;;;1.95;1.70;;;23.40;29.30;;;;;;5030892;28;20426;-59
2021/04/18 00:45:20;;;;;;;2.08;1.80;;;23.40;29.30;;;;;;5030778;28;20403;-59
2021/04/18 00:47:49;;;;;;;2.30;1.90;;;23.30;29.30;;;;;;5030540;28;20392;-59
2021/04/18 00:50:21;;;;;;;2.58;1.90;;;23.30;29.50;;;;;;5030943;28;20394;-58
2021/04/18 00:52:47;;;;;;;1.85;1.60;;;23.30;29.30;;;;;;5030776;28;20423;-58
2021/04/18 00:55:13;;;;;;;2.10;1.88;;;23.30;29.40;;;;;;5012866;28;20913;-59
2021/04/18 00:57:38;;;;;;;2.38;1.77;;;23.20;29.40;;;;;;5049348;28;20463;-59
2021/04/18 01:00:08;;;;;;;2.20;1.80;;;23.20;29.40;;;;;;5050329;28;20878;-59
2021/04/18 01:02:34;;;;;;;2.28;1.77;;;23.10;29.50;;;;;;5050644;28;20885;-58
2021/04/18 01:05:00;;;;;;;2.67;1.98;;;23.10;29.40;;;;;;5050618;28;20873;-58
2021/04/18 01:07:26;;;;;;;2.03;1.80;;;23.10;29.50;;;;;;5050815;28;20398;-59
2021/04/18 01:09:53;;;;;;;2.43;1.67;;;23.10;29.90;;;;;;5048807;28;20919;-59
2021/04/18 01:12:18;;;;;;;2.20;2.00;;;23.00;29.50;;;;;;5050767;28;20400;-58
2021/04/18 01:14:44;;;;;;;2.17;1.70;;;23.00;29.50;;;;;;5053256;28;20472;-58
2021/04/18 01:17:10;;;;;;;2.00;1.80;;;23.00;29.60;;;;;;5054292;28;20481;-58
2021/04/18 01:19:36;;;;;;;2.00;1.50;;;23.00;29.60;;;;;;5054424;28;20467;-59
2021/04/18 01:22:02;;;;;;;2.63;1.92;;;22.90;29.50;;;;;;5053488;28;20430;-59
2021/04/18 01:24:27;;;;;;;2.22;1.75;;;22.90;29.60;;;;;;5054080;28;20477;-59
2021/04/18 01:26:53;;;;;;;1.97;1.70;;;22.80;29.60;;;;;;5054004;28;20773;-58
2021/04/18 01:29:19;;;;;;;2.10;1.80;;;22.90;29.70;;;;;;5054225;28;20870;-60
2021/04/18 01:31:44;;;;;;;2.13;1.90;;;22.80;29.50;;;;;;5053732;28;20892;-59
2021/04/18 01:34:14;;;;;;;2.20;2.00;;;22.80;29.70;;;;;;5053247;28;20857;-58
2021/04/18 01:36:45;;;;;;;2.25;2.00;;;22.70;30.20;;;;;;5053560;28;20396;-58
2021/04/18 01:39:12;;;;;;;2.30;2.00;;;22.70;29.80;;;;;;5053587;28;20778;-58
2021/04/18 01:41:39;;;;;;;2.38;2.00;;;22.70;29.80;;;;;;5053686;28;20474;-58
2021/04/18 01:44:06;;;;;;;2.25;2.03;;;22.70;30.00;;;;;;5053299;28;20439;-58
2021/04/18 01:46:32;;;;;;;2.90;2.00;;;22.60;29.90;;;;;;5053685;28;20409;-58
2021/04/18 01:48:58;;;;;;;2.60;2.20;;;22.60;29.90;;;;;;5053625;28;20519;-58
2021/04/18 01:51:25;;;;;;;2.22;2.00;;;22.60;29.90;;;;;;5053689;28;20468;-59
2021/04/18 01:53:51;;;;;;;2.55;2.00;;;22.60;30.00;;;;;;5052963;28;20535;-58
2021/04/18 01:56:18;;;;;;;2.70;2.00;;;22.50;29.90;;;;;;5053640;28;20389;-58
2021/04/18 01:58:44;;;;;;;2.60;2.08;;;22.50;30.00;;;;;;5053731;28;20771;-59
2021/04/18 02:01:09;;;;;;;2.57;2.20;;;22.50;30.00;;;;;;5053348;28;20962;-58
2021/04/18 02:03:35;;;;;;;2.88;1.90;;;22.40;29.90;;;;;;5053271;28;20432;-58
2021/04/18 02:06:01;;;;;;;2.80;2.13;;;22.40;30.00;;;;;;5052858;28;20421;-58
2021/04/18 02:08:27;;;;;;;2.67;2.00;;;22.40;30.00;;;;;;5053268;28;20393;-58
2021/04/18 02:10:53;;;;;;;2.40;1.90;;;22.40;30.00;;;;;;5051847;28;20397;-59
2021/04/18 02:13:18;;;;;;;2.65;1.92;;;22.30;29.90;;;;;;5053460;28;20389;-58
2021/04/18 02:15:44;;;;;;;2.50;1.90;;;22.30;30.00;;;;;;5052925;28;20385;-58
2021/04/18 02:18:10;;;;;;;2.60;2.00;;;22.30;30.10;;;;;;5052868;28;20405;-58
2021/04/18 02:20:35;;;;;;;2.42;1.85;;;22.30;30.00;;;;;;5053005;28;20417;-58
2021/04/18 02:23:01;;;;;;;2.70;1.95;;;22.20;30.00;;;;;;5052994;28;20424;-59
2021/04/18 02:25:26;;;;;;;2.70;1.88;;;22.20;30.00;;;;;;5052938;28;20463;-58
2021/04/18 02:27:52;;;;;;;2.27;2.07;;;22.20;30.00;;;;;;5052409;28;20401;-58
2021/04/18 02:30:18;;;;;;;2.10;1.90;;;22.20;30.00;;;;;;5052975;28;20393;-59
2021/04/18 02:32:44;;;;;;;2.47;1.92;;;22.20;30.20;;;;;;5052859;28;20394;-58
2021/04/18 02:35:11;;;;;;;2.38;2.13;;;22.10;30.20;;;;;;5052826;28;20430;-60
2021/04/18 02:37:37;;;;;;;2.60;1.98;;;22.10;30.20;;;;;;5052738;28;20926;-58
2021/04/18 02:40:03;;;;;;;2.22;1.90;;;22.10;30.20;;;;;;5051764;28;20381;-59
2021/04/18 02:42:29;;;;;;;3.13;2.50;;;22.10;30.20;;;;;;5050750;28;20474;-59
2021/04/18 02:44:55;;;;;;;4.37;3.40;;;22.00;30.10;;;;;;5052338;28;20382;-59
2021/04/18 02:47:20;;;;;;;4.18;3.20;;;22.00;30.20;;;;;;5052538;28;20877;-58
2021/04/18 02:49:46;;;;;;;3.63;2.70;;;22.00;30.30;;;;;;5052193;28;20393;-58
2021/04/18 02:52:12;;;;;;;3.30;2.53;;;22.00;30.20;;;;;;5052222;28;20863;-58
2021/04/18 02:54:37;;;;;;;3.00;2.30;;;22.00;30.30;;;;;;5050883;28;20386;-58
2021/04/18 02:57:04;;;;;;;3.00;2.53;;;21.90;30.20;;;;;;5050691;28;20511;-58
2021/04/18 02:59:29;;;;;;;3.35;2.55;;;21.90;30.20;;;;;;5050888;28;20389;-58
2021/04/18 03:01:55;;;;;;;3.33;2.60;;;21.90;30.30;;;;;;5051679;28;20953;-58
2021/04/18 03:04:21;;;;;;;2.97;2.38;;;21.90;30.30;;;;;;5052231;28;20388;-58
2021/04/18 03:06:46;;;;;;;3.53;3.00;;;21.80;30.30;;;;;;5052214;28;20389;-58
2021/04/18 03:09:12;;;;;;;3.60;2.70;;;21.80;30.30;;;;;;5051974;28;20389;-59
2021/04/18 03:11:37;;;;;;;3.20;2.53;;;21.80;30.30;;;;;;5051462;28;20469;-58
2021/04/18 03:14:03;;;;;;;3.50;2.80;;;21.80;30.40;;;;;;5051374;28;20429;-58
2021/04/18 03:16:29;;;;;;;3.77;2.90;;;21.80;30.50;;;;;;5052113;28;20461;-59
2021/04/18 03:18:55;;;;;;;3.60;2.60;;;21.80;30.50;;;;;;5051884;28;20389;-58
2021/04/18 03:21:21;;;;;;;3.50;2.60;;;21.70;30.40;;;;;;5051933;28;20421;-58
2021/04/18 03:23:46;;;;;;;3.20;2.67;;;21.70;30.50;;;;;;5051780;28;20896;-58
2021/04/18 03:26:12;;;;;;;2.97;2.50;;;21.70;30.60;;;;;;5051063;28;20389;-59
2021/04/18 03:28:38;;;;;;;3.33;2.60;;;21.70;30.60;;;;;;5051435;28;20397;-58
2021/04/18 03:31:03;;;;;;;3.78;2.75;;;21.70;30.60;;;;;;5051780;28;20389;-58
2021/04/18 03:33:29;;;;;;;3.20;2.53;;;21.70;30.60;;;;;;5051746;28;20385;-58
2021/04/18 03:35:55;;;;;;;3.47;2.60;;;21.60;30.60;;;;;;5050784;28;20389;-58
2021/04/18 03:38:20;;;;;;;3.42;2.63;;;21.60;30.60;;;;;;5051699;28;20396;-59
2021/04/18 03:40:47;;;;;;;2.90;2.60;;;21.60;30.70;;;;;;5051065;28;20420;-58
2021/04/18 03:43:12;;;;;;;3.13;2.47;;;21.60;30.70;;;;;;5051192;28;20463;-58
2021/04/18 03:45:38;;;;;;;3.00;2.50;;;21.50;30.70;;;;;;5051323;28;20425;-58
2021/04/18 03:48:05;;;;;;;3.17;2.60;;;21.50;30.70;;;;;;5051077;28;20443;-58
2021/04/18 03:50:31;;;;;;;3.35;2.63;;;21.50;30.70;;;;;;5051516;28;20378;-58
2021/04/18 03:52:57;;;;;;;3.20;2.60;;;21.50;30.80;;;;;;5050133;28;20485;-59
2021/04/18 03:55:24;;;;;;;3.20;2.70;;;21.50;30.80;;;;;;5051123;28;20494;-59
2021/04/18 03:57:51;;;;;;;2.88;2.53;;;21.50;30.80;;;;;;5050641;28;20381;-58
2021/04/18 04:00:18;;;;;;;3.08;2.63;;;21.40;30.70;;;;;;5051240;28;20425;-58
2021/04/18 04:02:44;;;;;;;3.22;2.53;;;21.40;30.90;;;;;;5051377;28;20886;-58
2021/04/18 04:05:10;;;;;;;3.25;2.70;;;21.40;30.90;;;;;;5051668;28;20452;-58
2021/04/18 04:07:35;;;;;;;4.05;3.00;;;21.40;30.90;;;;;;5051311;28;20869;-59
2021/04/18 04:10:01;;;;;;;3.10;2.80;;;21.40;30.90;;;;;;5050789;28;20389;-58
2021/04/18 04:12:28;;;;;;;3.20;2.80;;;21.40;31.00;;;;;;5051359;28;20748;-58
2021/04/18 04:14:54;;;;;;;3.13;2.63;;;21.40;31.00;;;;;;5051388;28;20390;-60
2021/04/18 04:17:20;;;;;;;3.10;2.70;;;21.30;30.90;;;;;;5051543;28;20433;-58
2021/04/18 04:19:46;;;;;;;3.53;2.78;;;21.30;31.00;;;;;;5051174;28;20386;-58
2021/04/18 04:22:11;;;;;;;3.53;2.47;;;21.30;31.00;;;;;;5050711;28;20405;-59
2021/04/18 04:24:37;;;;;;;3.50;2.78;;;21.30;31.00;;;;;;5050999;28;20411;-58
2021/04/18 04:27:03;;;;;;;3.00;2.67;;;21.20;31.00;;;;;;5050649;28;20735;-59
2021/04/18 04:29:29;;;;;;;3.00;2.58;;;21.20;31.00;;;;;;5050916;28;20896;-59
2021/04/18 04:31:54;;;;;;;3.08;2.63;;;21.20;31.00;;;;;;5050905;28;20398;-58
2021/04/18 04:34:20;;;;;;;2.93;2.63;;;21.20;31.00;;;;;;5050909;28;20392;-58
2021/04/18 04:36:46;;;;;;;3.13;2.75;;;21.20;31.10;;;;;;5051047;28;20448;-58
2021/04/18 04:39:11;;;;;;;3.00;2.50;;;21.20;31.10;;;;;;5051024;28;20397;-58
2021/04/18 04:41:37;;;;;;;2.95;2.58;;;21.20;31.10;;;;;;5050698;28;20782;-58
2021/04/18 04:44:03;;;;;;;3.30;2.90;;;21.10;31.00;;;;;;5050461;28;20389;-58
2021/04/18 04:46:28;;;;;;;2.90;2.40;;;21.10;31.10;;;;;;5050926;28;20401;-58
2021/04/18 04:48:54;;;;;;;3.10;2.60;;;21.10;31.20;;;;;;5052486;28;20421;-58
2021/04/18 04:51:20;;;;;;;3.10;2.70;;;21.10;31.10;;;;;;5054785;28;20393;-58
2021/04/18 04:53:45;;;;;;;2.80;2.35;;;21.10;31.20;;;;;;5054691;28;20394;-59
2021/04/18 04:56:11;;;;;;;3.00;2.57;;;21.10;31.20;;;;;;5054289;28;20400;-58
2021/04/18 04:58:37;;;;;;;2.97;2.67;;;21.10;31.20;;;;;;5054591;28;20396;-58
2021/04/18 05:01:02;;;;;;;3.13;2.53;;;21.00;31.20;;;;;;5054555;28;20416;-58
2021/04/18 05:03:28;;;;;;;2.83;2.53;;;21.00;31.20;;;;;;5054607;28;20399;-58
2021/04/18 05:05:54;;;;;;;2.70;2.50;;;21.00;31.20;;;;;;5054307;28;20416;-58
2021/04/18 05:08:20;;;;;;;2.90;2.60;;;21.00;31.30;;;;;;5054136;28;20397;-58
2021/04/18 05:10:46;;;;;;;3.30;2.78;;;21.00;31.60;;;;;;5053914;28;20388;-58
2021/04/18 05:13:12;;;;;;;3.10;2.40;;;21.00;31.30;;;;;;5053908;28;20779;-58
2021/04/18 05:15:38;;;;;;;3.08;2.50;;;20.90;31.30;;;;;;5054340;28;20850;-58
2021/04/18 05:18:04;;;;;;;3.30;2.47;;;20.90;31.40;;;;;;5053873;28;20393;-58
2021/04/18 05:20:30;;;;;;;3.03;2.72;;;20.90;31.40;;;;;;5054375;28;20378;-58
2021/04/18 05:22:56;;;;;;;2.80;2.50;;;20.90;31.60;;;;;;5054093;28;20489;-58
2021/04/18 05:25:22;;;;;;;2.53;2.33;;;20.90;31.50;;;;;;5054252;28;20468;-58
2021/04/18 05:27:47;;;;;;;2.88;2.58;;;20.90;31.50;;;;;;5054196;28;20749;-58
2021/04/18 05:30:14;;;;;;;3.00;2.60;;;20.90;31.60;;;;;;5053643;28;20393;-58
2021/04/18 05:32:40;;;;;;;2.95;2.45;;;20.90;31.60;;;;;;5053995;28;20369;-57
2021/04/18 05:35:07;;;;;;;2.85;2.50;;;20.90;31.50;;;;;;5053991;28;20413;-59
2021/04/18 05:37:33;;;;;;;2.90;2.50;;;20.80;31.50;;;;;;5054010;28;20461;-59
2021/04/18 05:39:59;;;;;;;2.55;2.30;;;20.80;31.60;;;;;;5053580;28;20386;-58
2021/04/18 05:42:25;;;;;;;2.45;2.25;;;20.80;31.50;;;;;;5053614;28;20428;-58
2021/04/18 05:44:50;;;;;;;2.58;2.28;;;20.80;31.70;;;;;;5053788;28;20447;-59
2021/04/18 05:47:16;;;;;;;2.90;2.40;;;20.80;31.70;;;;;;5053742;28;20413;-58
2021/04/18 05:49:42;;;;;;;2.80;2.30;;;20.80;32.10;;;;;;5053703;28;20888;-58
2021/04/18 05:52:07;;;;;;;2.97;2.50;;;20.80;31.70;;;;;;5053148;28;20386;-59
2021/04/18 05:54:33;;;;;;;3.00;2.50;;;20.80;31.70;;;;;;5053593;28;20390;-58
2021/04/18 05:56:59;;;;;;;2.97;2.40;;;20.70;31.80;;;;;;5053572;28;20785;-58
2021/04/18 05:59:25;;;;;;;3.10;2.60;;;20.70;31.80;;;;;;5053108;28;20378;-59
2021/04/18 06:01:50;;;;;;;3.22;2.90;;;20.70;32.00;;;;;;5053118;28;20432;-59
2021/04/18 06:04:16;;;;;;;2.83;2.53;;;20.70;32.20;;;;;;5052947;28;20405;-59
2021/04/18 06:06:42;;;;;;;3.00;2.60;;;20.70;32.70;;;;;;5052593;28;20443;-59
2021/04/18 06:09:08;;;;;;;3.03;2.65;;;20.70;33.00;;;;;;5053492;28;20405;-59
2021/04/18 06:11:33;;;;;;;2.77;2.50;;;20.70;32.10;;;;;;5053075;28;20381;-59
2021/04/18 06:13:59;;;;;;;4.40;2.40;;;20.80;32.20;;;;;;5052993;28;20873;-59
2021/04/18 06:16:25;;;;;;;3.07;2.47;;;20.90;32.10;;;;;;5051803;28;20873;-59
2021/04/18 06:18:50;;;;;;;3.05;2.40;;;20.90;32.00;;;;;;5053075;28;20897;-59
2021/04/18 06:21:16;;;;;;;2.95;2.20;;;20.90;32.10;;;;;;5053082;28;20440;-59
2021/04/18 06:23:42;;;;;;;3.03;2.30;;;20.90;31.80;;;;;;5053122;28;20420;-64
2021/04/18 06:26:08;;;;;;;3.05;2.40;;;21.00;32.50;;;;;;5051804;28;20389;-59
2021/04/18 06:28:33;;;;;;;2.90;2.20;;;21.00;32.00;;;;;;5052304;28;20446;-58
2021/04/18 06:30:59;;;;;;;3.63;2.10;;;21.10;31.80;;;;;;5052793;28;20389;-59
2021/04/18 06:33:25;;;;;;;2.53;2.20;;;21.10;31.90;;;;;;5052957;28;20393;-59
2021/04/18 06:35:50;;;;;;;2.83;1.97;;;21.20;31.80;;;;;;5052743;28;20401;-61
2021/04/18 06:38:16;;;;;;;3.10;2.10;;;21.10;31.70;;;;;;5052299;28;20897;-58
2021/04/18 06:40:42;;;;;;;2.20;1.92;;;21.10;31.60;;;;;;5052418;28;20382;-59
2021/04/18 06:43:10;;;;;;;2.00;1.80;;;21.20;31.80;;;;;;5052626;28;20893;-59
2021/04/18 06:45:36;;;;;;;2.58;2.08;;;21.20;32.00;;;;;;5052492;28;20802;-59
2021/04/18 06:48:03;;;;;;;3.90;2.58;;;21.20;32.40;;;;;;5052303;28;20397;-59
2021/04/18 06:50:29;;;;;;;3.22;2.13;;;21.30;32.80;;;;;;5052542;28;20734;-58
2021/04/18 06:52:55;;;;;;;2.97;2.17;;;21.40;33.50;;;;;;5052426;28;20382;-60
2021/04/18 06:55:21;;;;;;;3.15;2.15;;;21.40;32.90;;;;;;5052408;28;20391;-59
2021/04/18 06:57:47;;;;;;;2.90;2.00;;;21.30;33.80;;;;;;5052202;28;20385;-58
2021/04/18 07:00:14;;;;;;;4.20;2.00;;;21.30;34.60;;;;;;5051826;28;20411;-58
2021/04/18 07:02:41;;;;;;;3.63;2.42;;;21.40;34.40;;;;;;5050924;28;20417;-59
2021/04/18 07:05:09;;;;;;;3.00;2.10;;;21.40;33.00;;;;;;5052296;28;20389;-58
2021/04/18 07:07:37;;;;;;;2.80;2.10;;;21.40;33.00;;;;;;5052174;28;20409;-59
2021/04/18 07:10:06;;;;;;;2.90;2.00;;;21.40;32.90;;;;;;5051967;28;20404;-59
2021/04/18 07:12:33;;;;;;;2.40;2.03;;;21.40;32.60;;;;;;5051280;28;20394;-59
2021/04/18 07:14:59;;;;;;;2.83;1.95;;;21.40;32.90;;;;;;5052369;28;20447;-59
2021/04/18 07:17:26;;;;;;;2.53;2.25;;;21.40;32.50;;;;;;5052219;28;20426;-58
2021/04/18 07:20:12;;;;;;;2.85;2.17;;;21.40;32.50;;;;;;5051992;28;20390;-58
2021/04/18 07:22:38;;;;;;;2.83;1.98;;;21.40;32.20;;;;;;5051763;28;20424;-58
2021/04/18 07:25:05;;;;;;;4.05;1.85;;;21.40;31.90;;;;;;5052034;28;20385;-58
2021/04/18 07:27:45;;;;;;;3.25;2.10;;;21.40;31.90;;;;;;5051708;28;20750;-58
2021/04/18 07:30:13;;;;;;;3.22;2.00;;;21.40;31.70;;;;;;5051409;28;20382;-58
2021/04/18 07:32:38;;;;;;;2.92;1.98;;;21.40;31.70;;;;;;5051753;28;20382;-58
2021/04/18 07:35:05;;;;;;;3.45;2.20;;;21.40;31.60;;;;;;5051800;28;20447;-59
2021/04/18 07:37:32;;;;;;;3.22;2.00;;;21.40;31.60;;;;;;5051773;28;20373;-59
2021/04/18 07:40:03;;;;;;;2.97;2.03;;;21.40;31.50;;;;;;5051512;28;20400;-59
2021/04/18 07:42:37;;;;;;;2.63;2.10;;;21.40;31.40;;;;;;5051374;28;20409;-58
2021/04/18 07:45:12;;;;;;;3.40;1.90;;;21.40;31.40;;;;;;5051406;28;20385;-58
2021/04/18 07:47:40;;;;;;;2.85;2.00;;;21.40;31.40;;;;;;5040304;28;20418;-58
2021/04/18 07:50:17;;;;;;;3.20;2.30;;;21.40;31.30;;;;;;5031455;28;20402;-58
2021/04/18 07:52:45;;;;;;;2.97;2.08;;;21.40;31.20;;;;;;5049898;28;20404;-59
2021/04/18 07:55:13;;;;;;;3.08;2.20;;;21.50;31.20;;;;;;5050434;28;20396;-59
2021/04/18 07:57:39;;;;;;;2.83;2.05;;;21.50;31.10;;;;;;5051465;28;20933;-58
2021/04/18 08:00:07;;;;;;;3.10;2.03;;;21.50;31.10;;;;;;5050029;28;20796;-58
2021/04/18 08:02:34;;;;;;;2.83;2.20;;;21.50;31.10;;;;;;5050337;28;20769;-58
2021/04/18 08:05:00;;;;;;;2.67;2.22;;;21.50;31.00;;;;;;5051424;28;20544;-59
2021/04/18 08:07:26;;;;;;;2.80;2.05;;;21.50;31.00;;;;;;5051404;28;20393;-59
2021/04/18 08:10:22;;;;;;;2.88;2.45;;;21.50;31.00;;;;;;5051631;28;20381;-58
2021/04/18 08:13:00;;;;;;;2.50;2.10;;;21.50;30.90;;;;;;5042819;28;20395;-58
2021/04/18 08:15:26;;;;;;;2.85;2.28;;;21.50;30.90;;;;;;5051398;28;20389;-58
2021/04/18 08:18:05;;;;;;;2.73;2.13;;;21.60;30.90;;;;;;5050207;28;20900;-58
2021/04/18 08:20:42;;;;;;;3.42;2.33;;;21.60;31.00;;;;;;5050893;28;20398;-58
2021/04/18 08:23:16;;;;;;;2.95;2.35;;;21.60;30.90;;;;;;5053168;28;20417;-58
2021/04/18 08:26:04;;;;;;;3.50;2.30;;;21.60;30.80;;;;;;5055243;28;20381;-58
2021/04/18 08:28:31;;;;;;;3.15;2.50;;;21.60;30.80;;;;;;5055150;28;20464;-58
2021/04/18 08:31:00;;;;;;;2.47;2.25;;;21.60;30.80;;;;;;5055186;28;20423;-58
2021/04/18 08:33:38;;;;;;;6.10;3.15;;;21.60;30.90;;;;;;5055073;28;20897;-58
2021/04/18 08:36:11;;;;;;;4.40;3.10;;;21.60;31.00;;;;;;5054721;28;20428;-58
2021/04/18 08:38:37;;;;;;;5.53;3.30;;;21.60;31.00;;;;;;5055041;28;20890;-59
2021/04/18 08:41:04;;;;;;;8.25;3.80;;;21.60;31.10;;;;;;5054923;28;20392;-59
2021/04/18 08:43:29;;;;;;;5.07;3.03;;;21.60;31.10;;;;;;5055017;28;20428;-59
2021/04/18 08:45:55;;;;;;;4.90;2.87;;;21.60;31.10;;;;;;5054676;28;20441;-59
2021/04/18 08:48:22;;;;;;;4.03;2.60;;;21.60;31.10;;;;;;5054301;28;20408;-58
2021/04/18 08:51:02;;;;;;;3.45;2.42;;;21.60;31.00;;;;;;5054888;28;20390;-58
2021/04/18 08:53:49;;;;;;;4.45;2.60;;;21.60;30.90;;;;;;5054794;28;20386;-58
2021/04/18 08:56:14;;;;;;;4.30;2.90;;;21.60;31.00;;;;;;5054059;28;20460;-58
2021/04/18 08:58:40;;;;;;;3.70;2.80;;;21.60;30.80;;;;;;5054342;28;20481;-59
2021/04/18 09:01:16;;;;;;;3.10;2.53;;;21.60;30.80;;;;;;5053231;28;20413;-58
2021/04/18 09:04:02;;;;;;;3.13;2.53;;;21.70;31.00;;;;;;5054627;28;20389;-59
2021/04/18 09:06:33;;;;;;;3.83;2.53;;;21.70;31.00;;;;;;5054242;28;20473;-59
2021/04/18 09:09:01;;;;;;;2.90;2.40;;;21.70;30.90;;;;;;5054389;28;20874;-58
2021/04/18 09:11:27;;;;;;;3.58;2.67;;;21.70;31.00;;;;;;5054302;28;20479;-58
2021/04/18 09:13:58;;;;;;;7.65;4.85;;;21.70;32.00;;;;;;5054336;28;20915;-59
2021/04/18 09:16:35;;;;;;;6.20;3.90;;;21.80;33.50;;;;;;5053711;28;20381;-58
2021/04/18 09:19:21;;;;;;;6.88;3.53;;;21.90;33.40;;;;;;5054467;28;20389;-58
2021/04/18 09:22:09;;;;;;;6.88;3.03;;;22.00;33.50;;;;;;5054094;28;20408;-59
2021/04/18 09:24:54;;;;;;;6.18;3.35;;;22.00;33.50;;;;;;5053814;28;20389;-58
2021/04/18 09:27:26;;;;;;;4.60;3.00;;;22.00;34.70;;;;;;5053877;28;20765;-58
2021/04/18 09:30:04;;;;;;;5.67;2.87;;;22.00;35.60;;;;;;5054021;28;20392;-58
2021/04/18 09:32:41;;;;;;;8.33;2.90;;;22.00;34.30;;;;;;5053578;28;20378;-58
2021/04/18 09:35:09;;;;;;;5.57;2.88;;;22.00;35.90;;;;;;5053181;28;20388;-58
2021/04/18 09:37:44;;;;;;;7.50;3.60;;;22.00;36.60;;;;;;5053889;28;20404;-58
2021/04/18 09:40:16;;;;;;;5.95;3.20;;;22.10;35.00;;;;;;5053725;28;20393;-58
2021/04/18 09:42:44;;;;;;;4.68;3.13;;;22.00;36.60;;;;;;5053662;28;20893;-58
2021/04/18 09:45:18;;;;;;;5.43;3.15;;;22.10;35.70;;;;;;5053678;28;20408;-59
2021/04/18 09:47:48;;;;;;;6.63;3.30;;;22.20;35.80;;;;;;5052838;28;20757;-62
2021/04/18 09:50:22;;;;;;;6.33;3.00;;;22.20;35.50;;;;;;5053288;28;20406;-58
2021/04/18 09:52:49;;;;;;;5.13;2.90;;;22.20;34.90;;;;;;5053822;28;20403;-58
2021/04/18 09:55:21;;;;;;;5.18;3.10;;;22.20;33.80;;;;;;5053126;28;20400;-58
2021/04/18 09:57:58;;;;;;;8.50;2.90;;;22.20;34.60;;;;;;5052265;28;20421;-63
2021/04/18 10:00:36;;;;;;;5.57;2.85;;;22.20;34.80;;;;;;5051672;28;20919;-58
2021/04/18 10:03:07;;;;;;;3.92;3.00;;;22.20;34.60;;;;;;5051044;28;20417;-59
2021/04/18 10:05:36;;;;;;;4.80;3.20;;;22.30;35.00;;;;;;5049824;28;20393;-59
2021/04/18 10:08:26;;;;;;;5.82;2.90;;;22.30;34.10;;;;;;5052312;28;20385;-58
2021/04/18 10:11:15;;;;;;;4.78;2.90;;;22.30;34.00;;;;;;5049524;28;20385;-58
2021/04/18 10:14:05;;;;;;;4.68;2.80;;;22.30;33.60;;;;;;5051010;28;20381;-58
2021/04/18 10:16:33;;;;;;;3.80;2.70;;;22.30;33.80;;;;;;5036678;28;20484;-59
2021/04/18 10:19:18;;;;;;;3.78;2.75;;;22.30;34.80;;;;;;5050247;28;20869;-59
2021/04/18 10:22:11;;;;;;;4.20;2.78;;;22.30;34.00;;;;;;5051220;28;20482;-59
2021/04/18 10:24:44;;;;;;;5.30;2.92;;;22.30;34.40;;;;;;5049019;28;20462;-58
2021/04/18 10:27:12;;;;;;;5.28;3.00;;;22.30;33.80;;;;;;5050575;28;20397;-59
2021/04/18 10:29:39;;;;;;;4.83;3.17;;;22.30;33.70;;;;;;5051734;28;20397;-59
2021/04/18 10:32:07;;;;;;;3.65;2.78;;;22.40;34.00;;;;;;5052315;28;20719;-58
2021/04/18 10:34:33;;;;;;;3.72;2.67;;;22.40;33.80;;;;;;5050863;28;20736;-58
2021/04/18 10:36:59;;;;;;;4.95;2.90;;;22.30;33.30;;;;;;5052577;28;20794;-59
2021/04/18 10:39:24;;;;;;;4.60;2.87;;;22.30;33.10;;;;;;5052541;28;20398;-59
2021/04/18 10:41:51;;;;;;;4.15;2.88;;;22.30;32.80;;;;;;5038872;28;20444;-57
2021/04/18 10:44:17;;;;;;;4.47;2.85;;;22.30;32.60;;;;;;5041460;28;20409;-58
2021/04/18 10:46:52;;;;;;;4.75;2.70;;;22.30;32.50;;;;;;5052066;28;20397;-58
2021/04/18 10:49:18;;;;;;;3.05;2.60;;;22.30;32.60;;;;;;5052229;28;20393;-57
2021/04/18 10:51:44;;;;;;;3.08;2.70;;;22.30;32.50;;;;;;5052458;28;20447;-57
2021/04/18 10:54:10;;;;;;;4.53;2.77;;;22.30;32.40;;;;;;5052263;28;20419;-57
2021/04/18 10:56:36;;;;;;;3.42;2.83;;;22.30;32.30;;;;;;5050583;28;20393;-58
2021/04/18 10:59:03;;;;;;;3.72;2.80;;;22.30;31.80;;;;;;5050414;28;20400;-59
2021/04/18 11:01:28;;;;;;;3.90;3.03;;;22.30;31.70;;;;;;5052141;28;20514;-59
2021/04/18 11:03:54;;;;;;;6.25;3.20;;;22.30;31.90;;;;;;5050870;28;20433;-58
2021/04/18 11:06:22;;;;;;;4.55;2.90;;;22.30;32.30;;;;;;5051492;28;20389;-57
2021/04/18 11:08:47;;;;;;;4.25;3.08;;;22.20;32.00;;;;;;5051759;28;21125;-58
2021/04/18 11:11:13;;;;;;;3.90;2.93;;;22.20;32.00;;;;;;5050699;28;20429;-58
2021/04/18 11:13:39;;;;;;;5.00;3.00;;;22.30;31.70;;;;;;5051063;28;20480;-60
2021/04/18 11:16:06;;;;;;;4.32;2.70;;;22.30;31.60;;;;;;5051867;28;20397;-58
2021/04/18 11:18:32;;;;;;;3.80;2.90;;;22.20;31.70;;;;;;5051401;28;20390;-58
2021/04/18 11:20:58;;;;;;;9.20;4.50;;;22.20;31.90;;;;;;5051622;28;20394;-58
2021/04/18 11:23:23;;;;;;;51.50;35.38;;;22.30;32.00;;;;;;5051737;28;20405;-58
2021/04/18 11:25:49;;;;;;;44.15;29.90;;;22.30;32.00;;;;;;5051871;28;20394;-57
2021/04/18 11:28:15;;;;;;;13.20;8.97;;;22.20;32.00;;;;;;5051806;28;20444;-58
2021/04/18 11:30:41;;;;;;;11.32;8.02;;;22.20;31.90;;;;;;5051372;28;20409;-66
2021/04/18 11:33:06;;;;;;;17.48;14.02;;;22.20;32.90;;;;;;5051472;28;20386;-58
2021/04/18 11:35:32;;;;;;;39.83;35.97;;;22.20;32.50;;;;;;5051274;28;20456;-59
2021/04/18 11:38:00;;;;;;;32.05;28.65;;;22.20;32.30;;;;;;5050053;28;20485;-65
2021/04/18 11:40:26;;;;;;;31.50;28.00;;;22.30;32.30;;;;;;5050740;28;20389;-61
2021/04/18 11:42:52;;;;;;;28.65;25.65;;;22.40;32.20;;;;;;5051100;28;20924;-66
2021/04/18 11:45:19;;;;;;;26.27;23.48;;;22.60;32.70;;;;;;5050957;28;20402;-61
2021/04/18 11:47:46;;;;;;;25.58;20.50;;;22.70;32.40;;;;;;5050045;28;20505;-59
2021/04/18 11:50:14;;;;;;;19.40;17.30;;;22.80;32.20;;;;;;5050358;28;20459;-62
2021/04/18 11:52:40;;;;;;;18.30;16.05;;;22.90;31.80;;;;;;5049665;28;20409;-65
2021/04/18 11:55:08;;;;;;;17.03;14.87;;;23.00;31.40;;;;;;5050570;28;20813;-66
2021/04/18 11:57:35;;;;;;;16.50;14.23;;;23.20;31.20;;;;;;5048978;28;20935;-64
2021/04/18 12:00:01;;;;;;;16.83;14.87;;;23.20;30.90;;;;;;5049622;28;20377;-65
2021/04/18 12:02:27;;;;;;;15.63;13.77;;;23.30;30.90;;;;;;5050534;28;20409;-63
2021/04/18 12:04:52;;;;;;;16.50;14.35;;;23.30;31.20;;;;;;5051330;28;20396;-64
2021/04/18 12:07:18;;;;;;;21.13;13.40;;;23.30;31.40;;;;;;5051317;28;20412;-58
2021/04/18 12:09:44;;;;;;;19.65;12.68;;;23.40;31.60;;;;;;5051201;28;20389;-59
2021/04/18 12:12:09;;;;;;;17.73;11.60;;;23.40;31.80;;;;;;5051263;28;20773;-62
2021/04/18 12:14:36;;;;;;;15.82;11.48;;;23.40;32.50;;;;;;5050982;28;20393;-59
2021/04/18 12:17:02;;;;;;;13.32;11.25;;;23.40;31.90;;;;;;5051252;28;20397;-60
2021/04/18 12:19:27;;;;;;;14.63;11.32;;;23.50;32.70;;;;;;5051248;28;20392;-62
2021/04/18 12:21:53;;;;;;;19.60;13.20;;;23.50;32.60;;;;;;5051017;28;20500;-64
2021/04/18 12:24:19;;;;;;;26.83;24.40;;;23.50;32.90;;;;;;5050992;28;20401;-57
2021/04/18 12:26:45;;;;;;;26.90;24.17;;;23.60;32.70;;;;;;5050749;28;20411;-58
2021/04/18 12:29:11;;;;;;;22.95;20.45;;;23.60;32.80;;;;;;5050447;28;20871;-58
2021/04/18 12:31:40;;;;;;;21.73;19.67;;;23.70;33.40;;;;;;5051098;28;20480;-58
2021/04/18 12:34:06;;;;;;;21.20;18.45;;;23.80;32.70;;;;;;5051309;28;20386;-59
2021/04/18 12:36:32;;;;;;;52.08;29.20;;;23.80;32.70;;;;;;5050627;28;20435;-58
2021/04/18 12:38:58;;;;;;;110.00;61.42;;;23.90;33.90;;;;;;5050849;28;20397;-59
2021/04/18 12:41:23;;;;;;;64.87;37.30;;;24.00;34.00;;;;;;5050892;28;20911;-59
2021/04/18 12:43:49;;;;;;;53.33;33.17;;;24.30;34.40;;;;;;5050380;28;20403;-58
2021/04/18 12:46:14;;;;;;;39.97;26.00;;;24.30;34.70;;;;;;5050652;28;20889;-59
2021/04/18 12:48:40;;;;;;;39.33;23.85;;;24.20;35.10;;;;;;5050349;28;20805;-59